Market Rasen, United Kingdom
Current Conditions -  °F | °C
As of 4:50 PM on Monday 22 Dec 2014 (Local Time) from EGXP Reporting Station
Broken Clouds Broken Clouds  
Wind Chill: 55°   Ceiling: 2700
Heat Index: 55°   Visibility: 6mi
Dew Point: 48°   Wind: 23mph
Humidity: 77%   Direction: 240°WSW
Pressure: 29.83"   Gusts: NA
Location:  53.39°N, 0.34°W
Report Text: EGXP 221650Z AUTO 24020KT 9999 // BKN027/// BKN080/// 13/09 Q1010
Loading
Personal Weather Stations






























Interactive Weather Map New forecast layout! Learn more

10-Day Weather Forecast

Advertisements
Track Severe Weather on mobile